• Join FlightAware (Why Join?)
  • Login
  • US Flag 
03:17AM EST


 

Airport Tracker/Info


-or-


 

Live Flight TrackerFlight Track Log ✈ N36638 ✈ 21-Jun-2013 ✈ KFAY - KFFC

Flight Track Log - Related Links

Times and Time Zones

All times are in EDT time to prevent confusion due to time zone crossing. See the N36638 flight status page for this flight to view local times or setup timezone preferences in your user account.

Time Position Orientation Groundspeed Altitude Reporting Facility
EDT Latitude Longitude Course Direction KTS MPH feet Rate Location/Type
10:52AM 34.8387 -79.2641 246° West  Level FlightAware Approximate
10:53AM 34.8176 -79.3212 246° West  Level FlightAware Approximate
10:54AM 34.7966 -79.3783 246° West  Level FlightAware Approximate
10:55AM 34.7755 -79.4354 246° West  Level FlightAware Approximate
10:56AM 34.7543 -79.4924 246° West  Level FlightAware Approximate
10:57AM 34.7332 -79.5494 246° West  Level FlightAware Approximate
10:58AM 34.7120 -79.6064 246° West  Level FlightAware Approximate
10:59AM 34.6908 -79.6633 246° West  Level FlightAware Approximate
11:00AM 34.6688 -79.7198 244° Southwest  Level FlightAware Approximate
11:01AM 34.6465 -79.7760 244° Southwest  Level FlightAware Approximate
11:02AM 34.6241 -79.8323 244° Southwest  Level FlightAware Approximate
11:03AM 34.6017 -79.8884 244° Southwest  Level FlightAware Approximate
11:04AM 34.5792 -79.9446 244° Southwest  Level FlightAware Approximate
11:05AM 34.5567 -80.0007 244° Southwest  Level FlightAware Approximate
11:06AM 34.5342 -80.0568 244° Southwest  Level FlightAware Approximate
11:07AM 34.5117 -80.1128 244° Southwest  Level FlightAware Approximate
11:08AM 34.4892 -80.1689 244° Southwest  Level FlightAware Approximate
11:09AM 34.4678 -80.2256 246° West  Level FlightAware Approximate
11:10AM 34.4468 -80.2825 246° West  Level FlightAware Approximate
11:11AM 34.4258 -80.3393 246° West  Level FlightAware Approximate
11:12AM 34.4047 -80.3962 246° West  Level FlightAware Approximate
11:13AM 34.3837 -80.4530 246° West  Level FlightAware Approximate
11:14AM 34.3626 -80.5097 246° West  Level FlightAware Approximate
11:15AM 34.3414 -80.5665 246° West  Level FlightAware Approximate
11:16AM 34.3203 -80.6232 246° West  Level FlightAware Approximate
11:17AM 34.2991 -80.6799 246° West  Level FlightAware Approximate
11:18AM 34.2779 -80.7366 246° West  Level FlightAware Approximate
11:19AM 34.2562 -80.7929 244° Southwest  Level FlightAware Approximate
11:20AM 34.2339 -80.8489 244° Southwest  Level FlightAware Approximate
11:21AM 34.2116 -80.9049 244° Southwest  Level FlightAware Approximate
11:22AM 34.1892 -80.9608 244° Southwest  Level FlightAware Approximate
11:23AM 34.1668 -81.0167 244° Southwest  Level FlightAware Approximate
11:24AM 34.1444 -81.0726 244° Southwest  Level FlightAware Approximate
11:25AM 34.1219 -81.1284 244° Southwest  Level FlightAware Approximate
11:26AM 34.0995 -81.1843 244° Southwest  Level FlightAware Approximate
11:27AM 34.0770 -81.2401 244° Southwest  Level FlightAware Approximate
11:28AM 34.0545 -81.2958 244° Southwest  Level FlightAware Approximate
11:29AM 34.0319 -81.3515 244° Southwest  Level FlightAware Approximate
11:30AM 34.0094 -81.4072 244° Southwest  Level FlightAware Approximate
11:31AM 33.9868 -81.4629 244° Southwest  Level FlightAware Approximate
11:32AM 33.9641 -81.5186 244° Southwest  Level FlightAware Approximate
11:33AM 33.9415 -81.5742 244° Southwest  Level FlightAware Approximate
11:34AM 33.9188 -81.6298 244° Southwest  Level FlightAware Approximate
11:35AM 33.8961 -81.6853 244° Southwest  Level FlightAware Approximate
11:36AM 33.8732 -81.7407 243° Southwest  Level FlightAware Approximate
11:37AM 33.8500 -81.7959 243° Southwest  Level FlightAware Approximate
11:38AM 33.8267 -81.8511 243° Southwest  Level FlightAware Approximate
11:39AM 33.8034 -81.9062 243° Southwest  Level FlightAware Approximate
11:40AM 33.7801 -81.9613 243° Southwest  Level FlightAware Approximate
11:41AM 33.7567 -82.0165 243° Southwest  Level FlightAware Approximate
11:42AM 33.7333 -82.0717 243° Southwest  Level FlightAware Approximate
11:43AM 33.7099 -82.1268 243° Southwest  Level FlightAware Approximate
11:44AM 33.6982 -82.1858 267° West  Level FlightAware Approximate
11:45AM 33.6952 -82.2476 267° West  Level FlightAware Approximate
11:46AM 33.6921 -82.3094 267° West  Level FlightAware Approximate
11:47AM 33.6890 -82.3712 267° West  Level FlightAware Approximate
11:48AM 33.6859 -82.4330 267° West  Level FlightAware Approximate
11:49AM 33.6833 -82.4948 270° West  Level FlightAware Approximate
11:50AM 33.6834 -82.5566 270° West  Level FlightAware Approximate
11:51AM 33.6834 -82.6185 270° West  Level FlightAware Approximate
11:52AM 33.6834 -82.6804 270° West  Level FlightAware Approximate
11:53AM 33.6833 -82.7423 270° West  Level FlightAware Approximate
11:54AM 33.6834 -82.8042 270° West  Level FlightAware Approximate
11:55AM 33.6834 -82.8661 270° West  Level FlightAware Approximate
11:56AM 33.6833 -82.9280 270° West  Level FlightAware Approximate
11:57AM 33.6791 -82.9875 220° Southwest  Level FlightAware Approximate
11:57AM 33.7167 -82.8167 270° West 188 216 8,000  Level Atlanta TRACON
11:58AM 33.6667 -83.0424 270° West  Level FlightAware Approximate
11:58AM 33.7167 -82.8833 270° West 191 220 7,900  Level Atlanta TRACON
11:59AM 33.6667 -83.1043 270° West  Level FlightAware Approximate
11:59AM 33.7000 -82.9333 248° West 191 220 7,900  Level Atlanta TRACON
12:00PM 33.6667 -83.1662 270° West  Level FlightAware Approximate
12:00PM 33.7000 -83.0000 270° West 185 213 7,900  Level Atlanta TRACON
12:01PM 33.6667 -83.2280 270° West  Level FlightAware Approximate
12:01PM 33.6833 -83.0667 253° West 188 216 7,300  Level Atlanta TRACON
12:02PM 33.6667 -83.2899 270° West  Level FlightAware Approximate
12:02PM 33.6667 -83.1167 248° West 196 226 6,000  Level Atlanta TRACON
12:03PM 33.6667 -83.1833 270° West 202 232 4,900 -960 Descending Atlanta TRACON
12:04PM 33.6500 -83.2500 253° West 191 220 4,100 -480 Descending Atlanta TRACON
12:05PM 33.6333 -83.3000 248° West 179 206 3,900 -120 Descending Atlanta TRACON
12:06PM 33.6167 -83.3500 248° West 160 184 3,900  Level Atlanta TRACON
12:07PM 33.6167 -83.4000 270° West 162 186 3,900  Level Atlanta TRACON
12:08PM 33.6000 -83.4500 248° West 168 193 3,900  Level Atlanta TRACON
12:09PM 33.5833 -83.5000 248° West 167 192 3,900 -60 Level Atlanta TRACON
12:10PM 33.5833 -83.5667 270° West 170 196 3,800 -300 Descending Atlanta TRACON
12:11PM 33.5667 -83.6167 248° West 181 208 3,400 -480 Descending Atlanta TRACON
12:12PM 33.5500 -83.6667 248° West 174 200 2,900 -300 Descending Atlanta TRACON
12:13PM 33.5333 -83.7167 248° West 174 200 2,900  Level Atlanta TRACON
12:14PM 33.5333 -83.7667 270° West 184 212 2,900  Level Atlanta TRACON
12:15PM 33.5167 -83.8333 253° West 183 211 2,900  Level Atlanta TRACON
12:16PM 33.5000 -83.8833 248° West 173 199 3,000  Climbing Atlanta TRACON
12:17PM 33.5000 -83.9500 270° West 178 205 3,000 -60 Level Atlanta TRACON
12:18PM 33.4833 -84.0000 248° West 182 209 2,900 -60 Descending Atlanta TRACON
12:19PM 33.4667 -84.0500 248° West 176 203 2,900  Level Atlanta TRACON
12:20PM 33.4500 -84.1167 253° West 179 206 2,900  Level Atlanta TRACON
12:21PM 33.4500 -84.1667 270° West 175 201 2,900  Level Atlanta TRACON
12:22PM 33.4333 -84.2333 253° West 172 198 3,000  Climbing Atlanta TRACON
12:23PM 33.4167 -84.2833 248° West 178 205 2,900 -60 Descending Atlanta TRACON
12:24PM 33.4167 -84.3333 270° West 173 199 2,900  Level Atlanta TRACON
12:25PM 33.4000 -84.4000 253° West 174 200 2,900  Level Atlanta TRACON